Krisztian Nikolic

Olheiro-Chefe - MTK Budapest
5 Dez 2027
Domingo
Processo

Personalidade

Adaptabilidade (10) Ambição (8) Controvérsia (19) Lealdade (12) Pressão (2) Profissionalismo (10) Espírito Esportivo (3) Temperamento (7)

Perfil

Estilo de Treinamento Democrático
Licença Continental B
Determinação 10
Gestão de Pessoas 4
Motivação 9
Disciplina 8
Satisfação no Trabalho
100%
Fadiga
0%
Função Olheiro-Chefe
Salário 42.6K p/s
Contrato 14.03.2030

Desempenho

Comportamento Bom
Eficácia do Treinamento
29%
Desenvolvimento do Jogador
30%
Prevenção de Lesões
50%
Implementação Tática
30%

Eventos Recentes

Participou de uma reunião de recrutamento 7d atrás
Participou de uma reunião de recrutamento 7d atrás
Participou de uma reunião de recrutamento 14d atrás
Participou de uma reunião de recrutamento 14d atrás
Participou de uma reunião de recrutamento 21d atrás
Participou de uma reunião de recrutamento 21d atrás
Participou de uma reunião de recrutamento 28d atrás
Participou de uma reunião de recrutamento 28d atrás

Monitorando agora

109
Jogador Clube Status Habilidade Confiança Observado Última observação Último voto
Aaron Collins Milton Keynes Dons Ativo 106 / 101 40% 1 05.07.2027 -
David Turnbull Cardiff City Ativo 127 / 101 40% 1 05.07.2027 -
Sam Nombe Milton Keynes Dons Ativo 111 / 102 40% 3 28.06.2027 -
Georgy Arutyunyan Puskas Akademia Ativo 109 / 114 55% 1 14.06.2027 -
Tshepang Moremi Orlando Pirates Perdido 113 / 113 66% 1 01.06.2027 -
Mattia Bortolussi Padova Ativo 123 / 119 40% 2 30.05.2027 -
Federico Di Francesco Catanzaro Ativo 120 / 105 40% 1 29.05.2027 -
Iwan Morgan Grimsby Town Ativo 108 / 96 40% 3 28.05.2027 -
Justin Obikwu Queens Park Rangers Ativo 91 / 112 40% 1 28.05.2027 -
Josh Coburn Millwall Ativo 131 / 138 40% 1 27.05.2027 -
Josh Koroma Leyton Orient Ativo 102 / 112 40% 4 26.05.2027 -
Tom Cannon Sheffield United Ativo 139 / 108 40% 2 24.05.2027 -
Pietro Iemmello Catanzaro Perdido 136 / 139 40% 1 24.05.2027 -
Luca Moro Padova Ativo 119 / 121 40% 1 22.05.2027 -
Aune Heggebø West Bromwich Albion Ativo 125 / 134 40% 1 20.05.2027 -
Dale Taylor Blackpool Ativo 110 / 130 40% 2 17.05.2027 -
Tyrese Campbell Sheffield United Ativo 115 / 112 40% 2 15.05.2027 -
Kieffer Moore Wrexham Ativo 135 / 113 40% 1 15.05.2027 -
Jack Marriott Reading Ativo 107 / 105 40% 1 14.05.2027 -
Marcus Forss Bristol Rovers Ativo 129 / 104 40% 1 14.05.2027 -
Ilyas Ansah Hull City Ativo 124 / 115 40% 1 11.05.2027 -
Peter Shalulile Mamelodi Sundowns Perdido 130 / 117 40% 6 08.05.2027 -
Niall Ennis Blackpool Ativo 100 / 93 40% 1 06.05.2027 -
Jaze Kabia Grimsby Town Ativo 109 / 73 40% 1 05.05.2027 -
Jovon Makama Norwich City Ativo 135 / 130 40% 2 04.05.2027 -
Malik Mothersille Stockport County Ativo 124 / 136 40% 1 04.05.2027 -
Lazar Marković Apollon Ativo 153 / 142 40% 7 01.05.2027 -
Cameron Archer Southampton Ativo 111 / 122 40% 1 01.05.2027 -
Oli McBurnie Hull City Ativo 139 / 150 40% 1 30.04.2027 -
Fabrizio Cavegn Bristol Rovers Ativo 118 / 126 40% 2 29.04.2027 -
Callum O'Hare Sheffield United Ativo 143 / 123 40% 1 29.04.2027 -
Kelly Saravanan Salford City Ativo 100 / 118 40% 1 25.04.2027 -
Jacopo Manconi Casertana Ativo 110 / 118 40% 1 24.04.2027 -
Tammer Kumar West Bromwich Albion Ativo 102 / 120 40% 1 24.04.2027 -
Matteo Rover Reggiana Ativo 107 / 128 40% 1 21.04.2027 -
George Hirst Stoke City Ativo 151 / 138 40% 1 20.04.2027 -
Rumarn Burrell Queens Park Rangers Ativo 137 / 112 40% 1 19.04.2027 -
Sam Greenwood Bristol City Ativo 120 / 107 40% 1 16.04.2027 -
Lamine Diakité Djoliba Ativo 116 / 102 40% 2 12.04.2027 -
Khama Furman SuperSport United Ativo 109 / 118 40% 4 11.04.2027 -
Estanis Pedrola Oviedo Ativo 137 / 134 40% 1 11.04.2027 -
Aaron Drinan Swindon Town Ativo 111 / 97 40% 1 07.04.2027 -
Wandile Duba Maritzburg United Ativo 90 / 116 40% 2 05.04.2027 -
Oumar Camara Vitoria Guimaraes Ativo 137 / 112 40% 1 05.04.2027 -
Brayan León Mamelodi Sundowns Ativo 102 / 132 40% 1 04.04.2027 -
Job Ochieng Real Sociedad Ativo 103 / 98 40% 1 03.04.2027 -
François Kamano Sochi Ativo 115 / 116 40% 1 01.04.2027 -
Martin Sekulić Ural Ativo 119 / 123 40% 2 31.03.2027 -
Saliou Guindo Real Bamako Ativo 89 / 107 40% 1 28.03.2027 -
Armstrong Oko-Flex Levski Ativo 123 / 116 40% 4 27.03.2027 -
Bamidele Yusuf Ferencvaros Ativo 102 / 104 40% 6 21.03.2027 -
Nikos Karelis Sliema Wanderers Ativo 102 / 103 40% 2 20.03.2027 -
Ramón Villalba Hatayspor Ativo 104 / 99 40% 1 20.03.2027 -
German Onugkha Rodina Ativo 132 / 113 40% 1 18.03.2027 -
Ilja Safronov Rotor Ativo 109 / 99 40% 2 17.03.2027 -
Malick Berthé AS Police Ativo 106 / 112 40% 1 17.03.2027 -
Ákos Zuigeber Honved Ativo 103 / 109 40% 1 15.03.2027 -
Jalen Blesa Rio Ave Ativo 137 / 109 40% 1 09.03.2027 -
Moussakoye Diallo Stade Malien Ativo 91 / 90 40% 1 08.03.2027 -
Ante Aralica Lokomotiv Sofia Ativo 113 / 95 40% 1 05.03.2027 -
Robert Murić Floriana Ativo 106 / 88 40% 1 04.03.2027 -
Kyle Joseph Middlesbrough Ativo 116 / 109 40% 3 03.03.2027 -
Judas Moseamedi Jomo Cosmos Ativo 105 / 99 40% 1 03.03.2027 -
Dávid Zimonyi Fehervar Ativo 92 / 101 40% 1 28.02.2027 -
Jacques Siwe Rubin Ativo 123 / 130 40% 2 27.02.2027 -
Slobodan Tedić Akron Ativo 101 / 102 40% 1 26.02.2027 -
Evidence Makgopa Orlando Pirates Ativo 106 / 120 40% 1 26.02.2027 -
András Radó Vasas Ativo 95 / 107 40% 1 17.02.2027 -
Patrick Schmidt Tarxien Rainbows Ativo 90 / 103 40% 1 17.02.2027 -
Ali Youssef Apollon Ativo 122 / 104 40% 1 15.02.2027 -
Joel Fameyeh Puskas Akademia Perdido 116 / 94 68% 4 14.02.2027 -
Dean Mkhize Ajax Cape Town Ativo 142 / 143 40% 1 10.02.2027 -
Egas Cacintura Akhmat Grozny Ativo 130 / 122 40% 1 05.02.2027 -
Szilárd Bokros Diosgyor Ativo 81 / 82 51% 1 11.01.2027 Observar
Lechi Sadulaev Akhmat Grozny Ativo 129 / 109 40% 1 31.12.2026 -
Haissem Hassan Bloemfontein Celtic Ativo 145 / 125 40% 1 31.12.2026 -
Aljoša Matko Ujpest Ativo 110 / 130 40% 3 29.12.2026 -
Morgan Erasmus Free State Stars Ativo 122 / 87 40% 1 29.12.2026 -
Suleiman Camara Slovan Bratislava Ativo 120 / 120 40% 2 28.12.2026 -
Relebohile Mofokeng Orlando Pirates Rejeitado 104 / 106 40% 2 28.12.2026 -
Franko Kovačević Honved Ativo 108 / 107 40% 1 27.12.2026 -
Ruslan Bezrukov Rubin Ativo 113 / 104 40% 1 26.12.2026 -
Gergő Gyurkits Paksi Ativo 112 / 117 40% 2 25.12.2026 -
Bradley Hlatshwayo SuperSport United Ativo 131 / 101 40% 3 24.12.2026 -
Simon Ramabu Polokwane City Ativo 100 / 104 40% 1 23.12.2026 -
Marcelo Allende Mamelodi Sundowns Ativo 131 / 136 40% 3 21.12.2026 -
Ammar Ramadan DAC Dunajska Streda Ativo 134 / 121 40% 3 19.12.2026 -
Arne Maier Ujpest Ativo 131 / 132 40% 4 18.12.2026 -
Reda Khadra Qarabag Ativo 137 / 140 40% 3 17.12.2026 -
Krisztofer Horváth Ujpest Ativo 107 / 120 40% 2 17.12.2026 -
Matěj Koubek MFK Ruzomberok Ativo 108 / 118 40% 1 16.12.2026 -
Eren Aydın Zira Ativo 95 / 91 40% 1 12.12.2026 -
Gorka Gorosabel Real Sociedad Ativo 96 / 131 40% 1 09.12.2026 -
Szabolcs Mezei Vasas Ativo 118 / 89 40% 1 04.12.2026 -
Léo Pereira CSKA Sofia Ativo 110 / 120 40% 1 03.12.2026 -
Teboho Tau Platinum Stars Ativo 120 / 132 40% 1 02.12.2026 -
Bence Banó-Szabó Vasas Ativo 90 / 88 40% 1 30.11.2026 -
Bendegúz Bolla Rapid Wien Ativo 139 / 110 40% 2 29.11.2026 -
Tio Cipot NK Maribor Ativo 116 / 133 40% 1 25.11.2026 -
Toby Collyer West Bromwich Albion Ativo 134 / 149 40% 1 24.11.2026 -
Thamsanqa Jali Ajax Cape Town Ativo 105 / 132 40% 1 20.11.2026 -
Daniel Kyerewaa Reading Ativo 98 / 104 40% 1 16.11.2026 -
Palkó Dárdai Puskas Akademia Ativo 114 / 102 40% 1 14.11.2026 -
Csanád Vilmos Dénes Debrecen Ativo 104 / 92 40% 1 13.11.2026 -
Andile Vilakazi Free State Stars Ativo 112 / 116 40% 1 12.11.2026 -
Ronaldo Maarman University of Pretoria Ativo 107 / 78 40% 1 07.11.2026 -
Gábor Vas Paksi Ativo 100 / 95 40% 1 04.11.2026 -
Raúl De Tomás Rayo Vallecano Ativo 141 / 128 40% 1 02.08.2026 -
Brian Montenegro Defensor Sporting Ativo 116 / 126 40% 1 02.08.2026 -